Time;durP1;ratioP1;P1;durP2;ratioP2;P2;SDS_P1;SDS_P2;PMS_P1;PMS_P2;Temp;Humidity;BMP_temperature;BMP_pressure;BME280_temperature;BME280_humidity;BME280_pressure;Samples;Min_cycle;Max_cycle;Signal;HPM_P1;HPM_P2
2022/07/19 00:01:16;;;;;;;;;8.50;8.00;;;;;25.76;44.90;101381.16;146618;564;45026;-69
2022/07/19 00:04:08;;;;;;;;;11.75;10.25;;;;;25.73;45.34;101383.81;146613;642;46919;-69
2022/07/19 00:07:00;;;;;;;;;5.00;5.00;;;;;25.65;45.42;101385.56;146620;569;46018;-68
2022/07/19 00:09:52;;;;;;;;;13.75;11.00;;;;;25.59;46.07;101404.16;146616;601;46012;-70
2022/07/19 00:12:44;;;;;;;;;12.50;10.50;;;;;25.47;46.16;101396.19;146611;656;46010;-70
2022/07/19 00:15:36;;;;;;;;;10.50;9.75;;;;;25.36;45.45;101388.22;146613;695;46920;-72
2022/07/19 00:18:34;;;;;;;;;11.50;10.00;;;;;25.36;45.92;101401.50;146621;569;46018;-69
2022/07/19 00:21:26;;;;;;;;;10.75;9.00;;;;;25.38;45.95;101398.84;146616;643;45032;-68
2022/07/19 00:24:18;;;;;;;;;9.00;8.00;;;;;25.42;46.46;101392.63;146618;569;46010;-68
2022/07/19 00:27:18;;;;;;;;;8.75;8.25;;;;;25.42;46.31;101397.94;146618;693;46012;-71
2022/07/19 00:30:23;;;;;;;;;8.25;7.75;;;;;25.32;45.70;101394.41;146620;606;46010;-69
2022/07/19 00:33:15;;;;;;;;;8.75;8.75;;;;;25.28;46.21;101396.16;146617;642;46018;-70
2022/07/19 00:36:07;;;;;;;;;10.25;7.25;;;;;25.34;46.37;101406.78;146621;679;46008;-69
2022/07/19 00:38:59;;;;;;;;;7.00;7.00;;;;;25.39;46.30;101412.13;146623;731;46010;-69
2022/07/19 00:41:54;;;;;;;;;10.00;9.25;;;;;25.41;46.32;101407.69;146616;593;45018;-69
2022/07/19 00:44:46;;;;;;;;;9.00;7.75;;;;;25.40;46.92;101399.72;146621;622;45019;-69
2022/07/19 00:47:40;;;;;;;;;9.00;8.25;;;;;25.38;46.65;101398.84;146623;656;46008;-68
2022/07/19 00:50:33;;;;;;;;;7.75;7.75;;;;;25.33;46.48;101391.75;146622;564;45917;-69
2022/07/19 00:53:49;;;;;;;;;9.00;8.75;;;;;25.32;45.58;101395.28;146611;657;45018;-69
2022/07/19 00:56:46;;;;;;;;;9.25;9.00;;;;;25.35;46.91;101387.31;146610;673;46010;-69
2022/07/19 00:59:43;;;;;;;;;8.50;8.50;;;;;25.40;46.50;101386.47;146622;571;45019;-70
2022/07/19 01:02:37;;;;;;;;;9.75;8.25;;;;;25.44;46.39;101382.91;146615;662;46018;-69
2022/07/19 01:05:52;;;;;;;;;10.25;10.00;;;;;25.51;45.63;101389.97;146602;663;46018;-69
2022/07/19 01:08:45;;;;;;;;;11.75;11.00;;;;;25.58;46.09;101391.78;146611;623;45029;-68
2022/07/19 01:11:37;;;;;;;;;11.00;11.00;;;;;25.63;46.51;101386.44;146611;581;46008;-69
2022/07/19 01:14:31;;;;;;;;;8.25;8.25;;;;;25.63;46.26;101390.00;146611;749;46010;-68
2022/07/19 01:17:24;;;;;;;;;13.00;11.25;;;;;25.62;46.37;101384.69;146616;571;46008;-68
2022/07/19 01:20:17;;;;;;;;;15.00;14.50;;;;;25.60;46.81;101379.37;146608;565;46013;-68
2022/07/19 01:23:09;;;;;;;;;13.50;13.00;;;;;25.57;46.70;101387.31;146609;671;45018;-71
2022/07/19 01:26:01;;;;;;;;;14.00;12.50;;;;;25.53;47.01;101390.88;146609;663;45018;-68
2022/07/19 01:28:59;;;;;;;;;11.50;11.50;;;;;25.49;46.68;101386.47;146614;597;45019;-68
2022/07/19 01:31:54;;;;;;;;;11.00;11.00;;;;;25.48;47.21;101377.62;146608;570;46018;-71
2022/07/19 01:34:47;;;;;;;;;15.75;14.00;;;;;25.50;47.19;101372.28;146610;598;46011;-70
2022/07/19 01:37:40;;;;;;;;;16.50;14.00;;;;;25.50;47.30;101372.28;146607;576;46012;-70
2022/07/19 01:40:33;;;;;;;;;13.75;12.75;;;;;25.47;47.75;101369.63;146609;572;46008;-68
2022/07/19 01:43:25;;;;;;;;;13.50;11.25;;;;;25.41;47.28;101385.56;146612;569;45012;-67
2022/07/19 01:46:17;;;;;;;;;14.50;13.50;;;;;25.38;47.97;101394.41;146606;569;46018;-69
2022/07/19 01:49:09;;;;;;;;;11.25;10.50;;;;;25.34;47.86;101382.03;146609;613;46010;-72
2022/07/19 01:52:01;;;;;;;;;17.50;16.00;;;;;24.25;49.12;101187.28;146609;650;46008;-71
2022/07/19 01:54:53;;;;;;;;;14.00;11.00;;;;;25.28;48.60;101380.25;146610;591;46012;-69
2022/07/19 01:57:45;;;;;;;;;13.75;13.25;;;;;25.27;48.39;101380.25;146608;590;46008;-69
2022/07/19 02:00:38;;;;;;;;;12.25;12.00;;;;;25.28;47.88;101388.19;146608;603;45018;-66
2022/07/19 02:03:30;;;;;;;;;16.75;15.75;;;;;25.32;48.25;101381.12;146613;569;45018;-68
2022/07/19 02:06:22;;;;;;;;;15.00;14.50;;;;;25.30;48.03;101383.78;146610;570;46018;-67
2022/07/19 02:09:14;;;;;;;;;15.75;14.75;;;;;25.22;47.61;101385.53;146610;565;46010;-68
2022/07/19 02:12:06;;;;;;;;;15.00;14.50;;;;;25.21;47.82;101388.22;146613;564;45018;-69
2022/07/19 02:14:58;;;;;;;;;10.25;10.00;;;;;25.24;47.78;101397.06;146610;620;45018;-68
2022/07/19 02:17:51;;;;;;;;;16.50;14.00;;;;;25.29;48.41;101392.63;146608;565;45030;-68
2022/07/19 02:20:43;;;;;;;;;14.25;13.00;;;;;25.26;48.08;101381.12;146612;612;45018;-66
2022/07/19 02:23:35;;;;;;;;;11.25;11.25;;;;;25.19;48.72;101385.53;146608;625;46010;-66
2022/07/19 02:26:28;;;;;;;;;14.00;12.75;;;;;25.12;48.35;101383.72;146610;570;46008;-68
2022/07/19 02:29:20;;;;;;;;;13.00;12.00;;;;;25.03;48.71;101389.91;146610;611;46918;-68
2022/07/19 02:32:12;;;;;;;;;14.00;13.00;;;;;24.95;49.21;101386.31;146609;574;46010;-67
2022/07/19 02:35:04;;;;;;;;;13.25;12.25;;;;;24.89;49.20;101399.56;146607;628;45019;-68
2022/07/19 02:37:57;;;;;;;;;17.75;13.00;;;;;24.85;49.38;101393.37;146610;576;46010;-69
2022/07/19 02:40:49;;;;;;;;;16.50;15.50;;;;;24.84;49.12;101390.75;146608;572;45018;-68
2022/07/19 02:43:44;;;;;;;;;13.50;13.50;;;;;24.82;49.01;101385.41;146609;594;46018;-68
2022/07/19 02:47:07;;;;;;;;;18.75;15.50;;;;;24.86;48.06;101400.47;146608;597;46010;-68
2022/07/19 02:49:59;;;;;;;;;17.75;14.00;;;;;24.87;49.05;101396.06;146608;629;46010;-68
2022/07/19 02:52:51;;;;;;;;;16.00;15.75;;;;;24.93;50.11;101395.19;146609;597;46018;-68
2022/07/19 02:55:48;;;;;;;;;13.00;12.50;;;;;24.91;49.79;101404.91;146612;684;45018;-68
2022/07/19 02:58:40;;;;;;;;;17.00;15.75;;;;;24.86;50.28;101405.78;146611;682;45033;-67
2022/07/19 03:01:32;;;;;;;;;12.25;12.25;;;;;24.75;50.76;101401.31;146612;625;45018;-68
2022/07/19 03:04:24;;;;;;;;;14.50;14.25;;;;;24.63;50.78;101410.97;146610;576;45919;-69
2022/07/19 03:07:16;;;;;;;;;15.25;14.25;;;;;24.57;50.52;101407.41;146611;681;45010;-68
2022/07/19 03:10:10;;;;;;;;;15.75;14.00;;;;;24.55;50.27;101403.88;146611;629;45018;-68
2022/07/19 03:13:02;;;;;;;;;13.50;12.50;;;;;24.56;50.18;101417.16;146610;599;46011;-71
2022/07/19 03:16:27;;;;;;;;;14.25;13.50;;;;;23.28;49.29;101203.56;146610;619;45018;-68
2022/07/19 03:19:19;;;;;;;;;13.00;12.00;;;;;24.52;50.48;101425.97;146611;594;45019;-67
2022/07/19 03:22:11;;;;;;;;;12.75;12.75;;;;;24.51;50.18;101423.31;146610;602;45018;-65
2022/07/19 03:25:04;;;;;;;;;9.50;9.50;;;;;24.52;50.58;101423.31;146612;570;45018;-66
2022/07/19 03:27:59;;;;;;;;;15.50;13.00;;;;;24.60;50.03;101418.03;146614;569;45018;-69
2022/07/19 03:30:54;;;;;;;;;13.00;12.00;;;;;24.66;50.28;101420.72;146608;579;46008;-69
2022/07/19 03:33:48;;;;;;;;;13.00;13.00;;;;;24.70;49.97;101419.84;146610;564;45019;-69
2022/07/19 03:36:40;;;;;;;;;14.00;12.50;;;;;24.73;49.98;101427.81;146613;642;45027;-67
2022/07/19 03:39:33;;;;;;;;;15.00;11.75;;;;;24.73;50.71;101430.47;146610;574;45025;-69
2022/07/19 03:42:25;;;;;;;;;18.25;13.75;;;;;24.72;49.95;101425.16;146613;636;45047;-67
2022/07/19 03:45:17;;;;;;;;;15.00;13.25;;;;;24.71;49.90;101423.41;146608;563;46012;-68
2022/07/19 03:48:09;;;;;;;;;12.75;12.00;;;;;24.74;49.30;101424.31;146611;588;46018;-68
2022/07/19 03:51:01;;;;;;;;;13.75;12.00;;;;;24.77;49.51;101436.69;146608;634;46019;-66
2022/07/19 03:53:54;;;;;;;;;10.50;10.00;;;;;24.80;49.17;101429.63;146609;597;46008;-67
2022/07/19 03:56:46;;;;;;;;;11.75;10.50;;;;;24.79;48.71;101438.44;146614;623;45019;-66
2022/07/19 03:59:39;;;;;;;;;9.75;9.75;;;;;24.79;49.44;101438.44;146614;614;46010;-66
2022/07/19 04:02:41;;;;;;;;;;;;;;;;;;;;;
2022/07/19 04:05:33;;;;;;;;;11.00;10.00;;;;;24.82;49.07;101446.41;146607;587;46018;-66
2022/07/19 04:08:37;;;;;;;;;9.75;8.50;;;;;24.82;48.67;101446.41;146610;569;46010;-66
2022/07/19 04:11:29;;;;;;;;;8.75;8.00;;;;;24.83;48.15;101444.69;146621;571;45019;-67
2022/07/19 04:14:22;;;;;;;;;6.75;5.50;;;;;24.87;46.89;101431.41;146620;569;45919;-65
2022/07/19 04:17:15;;;;;;;;;8.00;8.00;;;;;25.00;47.89;101442.06;146612;703;46018;-68
2022/07/19 04:20:07;;;;;;;;;9.25;8.50;;;;;25.11;47.96;101448.31;146618;572;46018;-68
2022/07/19 04:23:00;;;;;;;;;11.00;8.75;;;;;25.19;48.28;101456.31;146615;579;46018;-70
2022/07/19 04:25:53;;;;;;;;;9.75;8.25;;;;;25.24;48.24;101463.41;146617;578;45019;-70
2022/07/19 04:28:45;;;;;;;;;11.25;9.00;;;;;25.32;48.50;101455.44;146623;574;46008;-70
2022/07/19 04:31:40;;;;;;;;;8.00;8.00;;;;;25.38;48.41;101460.78;146615;579;46018;-72
2022/07/19 04:34:32;;;;;;;;;10.50;10.25;;;;;25.42;48.88;101462.56;146618;579;45019;-70
2022/07/19 04:37:24;;;;;;;;;10.00;10.00;;;;;25.46;49.00;101460.81;146611;578;45018;-70
2022/07/19 04:40:17;;;;;;;;;8.75;8.75;;;;;25.45;49.12;101465.25;146614;667;46008;-70
2022/07/19 04:43:09;;;;;;;;;9.00;7.75;;;;;25.44;48.84;101475.84;146621;596;46012;-69
2022/07/19 04:46:01;;;;;;;;;11.25;10.00;;;;;25.45;49.15;101472.28;146612;715;46010;-70
2022/07/19 04:48:52;;;;;;;;;12.00;12.00;;;;;25.51;49.26;101469.66;146606;729;46011;-70
2022/07/19 04:51:45;;;;;;;;;14.75;11.00;;;;;25.57;49.15;101473.19;146611;573;46018;-69
2022/07/19 04:54:45;;;;;;;;;11.50;10.00;;;;;25.64;49.16;101467.87;146606;642;47919;-70
2022/07/19 04:57:37;;;;;;;;;13.50;10.75;;;;;25.80;49.43;101475.00;146614;629;46008;-70
2022/07/19 05:00:30;;;;;;;;;12.00;11.25;;;;;26.06;48.81;101477.69;146608;626;46018;-69
2022/07/19 05:03:22;;;;;;;;;10.75;10.75;;;;;26.33;48.25;101474.13;146614;564;46010;-69
2022/07/19 05:06:14;;;;;;;;;15.25;12.50;;;;;26.47;47.92;101482.94;146609;585;46018;-69
2022/07/19 05:09:07;;;;;;;;;12.75;12.00;;;;;26.54;47.05;101480.28;146612;565;45018;-71
2022/07/19 05:12:00;;;;;;;;;11.75;10.00;;;;;26.57;46.32;101485.59;146609;564;45018;-70
2022/07/19 05:14:52;;;;;;;;;12.75;12.75;;;;;26.45;47.36;101489.16;146610;626;46010;-70
2022/07/19 05:17:44;;;;;;;;;10.25;9.50;;;;;26.30;46.65;101482.09;146613;576;46010;-71
2022/07/19 05:20:37;;;;;;;;;11.25;11.25;;;;;26.20;47.61;101475.91;146615;583;46008;-69
2022/07/19 05:23:29;;;;;;;;;10.00;10.00;;;;;26.17;47.30;101483.00;146611;675;45019;-68
2022/07/19 05:26:24;;;;;;;;;10.75;10.75;;;;;26.18;47.31;101477.66;146615;582;46010;-68
2022/07/19 05:29:16;;;;;;;;;10.50;10.25;;;;;26.23;47.58;101477.66;146608;589;46018;-68
2022/07/19 05:32:13;;;;;;;;;10.25;10.25;;;;;26.29;46.96;101479.41;146611;601;46008;-68
2022/07/19 05:35:15;;;;;;;;;10.50;8.00;;;;;26.34;46.14;101478.53;146610;709;46012;-68
2022/07/19 05:38:09;;;;;;;;;11.00;9.75;;;;;26.41;46.55;101480.28;146620;661;46008;-68
2022/07/19 05:41:02;;;;;;;;;11.00;8.25;;;;;26.45;46.15;101476.75;146618;585;46010;-69
2022/07/19 05:43:58;;;;;;;;;9.00;8.00;;;;;26.49;45.91;101478.53;146616;633;46010;-69
2022/07/19 05:46:50;;;;;;;;;9.00;9.00;;;;;26.52;45.80;101480.31;146624;588;45919;-72
2022/07/19 05:49:59;;;;;;;;;8.50;8.25;;;;;25.49;46.39;101304.16;146620;587;46008;-67
2022/07/19 05:52:52;;;;;;;;;5.67;4.67;;;;;26.48;44.71;101479.44;146625;610;45018;-67
2022/07/19 05:55:44;;;;;;;;;4.33;3.00;;;;;26.52;43.94;101475.00;146627;595;46008;-67
2022/07/19 05:58:36;;;;;;;;;7.33;6.00;;;;;26.63;43.65;101480.25;146624;577;46010;-69
2022/07/19 06:01:28;;;;;;;;;5.67;5.67;;;;;26.82;43.23;101475.75;146624;598;45019;-68
2022/07/19 06:04:20;;;;;;;;;4.00;4.00;;;;;27.09;42.68;101475.62;146621;585;46018;-69
2022/07/19 06:07:13;;;;;;;;;3.67;3.33;;;;;27.45;43.82;101465.72;146625;577;46010;-71
2022/07/19 06:10:05;;;;;;;;;6.33;4.67;;;;;27.84;41.93;101466.34;146622;609;45019;-68
2022/07/19 06:12:58;;;;;;;;;6.00;5.67;;;;;28.19;40.95;101462.44;146617;611;46018;-69
2022/07/19 06:15:50;;;;;;;;;4.00;4.00;;;;;28.37;39.37;101467.59;146623;609;46013;-66
2022/07/19 06:18:43;;;;;;;;;3.00;3.00;;;;;28.46;39.46;101467.53;146624;569;46008;-68
2022/07/19 06:21:36;;;;;;;;;7.67;6.33;;;;;28.57;40.01;101466.53;146640;598;45010;-67
2022/07/19 06:24:33;;;;;;;;;4.33;4.33;;;;;28.68;40.32;101473.50;146640;584;45010;-69
2022/07/19 06:27:28;;;;;;;;;6.33;5.67;;;;;28.83;40.10;101466.22;146637;584;45012;-67
2022/07/19 06:30:20;;;;;;;;;6.75;5.75;;;;;29.04;40.80;101460.66;146636;570;45018;-70
2022/07/19 06:33:12;;;;;;;;;5.25;5.25;;;;;29.24;39.36;101471.91;146638;564;45018;-70
2022/07/19 06:36:05;;;;;;;;;4.00;4.00;;;;;29.42;39.40;101461.88;146642;672;45018;-70
2022/07/19 06:38:58;;;;;;;;;4.00;4.00;;;;;29.61;37.80;101460.72;146634;594;45018;-68
2022/07/19 06:41:50;;;;;;;;;4.67;4.67;;;;;29.80;37.70;101455.94;146637;591;45010;-68
2022/07/19 06:44:42;;;;;;;;;4.75;3.75;;;;;29.97;37.57;101457.44;146633;697;45018;-68
2022/07/19 06:47:35;;;;;;;;;5.00;4.00;;;;;30.04;37.29;101456.44;146637;603;45019;-70
2022/07/19 06:50:26;;;;;;;;;4.75;4.75;;;;;29.96;37.25;101455.69;146641;569;45010;-69
2022/07/19 06:53:19;;;;;;;;;4.67;4.67;;;;;29.87;36.96;101459.41;146637;596;45019;-70
2022/07/19 06:56:11;;;;;;;;;3.67;3.67;;;;;29.87;38.00;101459.41;146639;579;45018;-68
2022/07/19 06:59:03;;;;;;;;;2.25;2.00;;;;;29.96;38.02;101455.69;146638;683;45010;-69
2022/07/19 07:02:04;;;;;;;;;2.00;2.00;;;;;30.09;37.49;101457.22;146634;631;45019;-68
2022/07/19 07:05:10;;;;;;;;;6.00;4.00;;;;;30.19;36.11;101455.25;146640;659;45018;-69
2022/07/19 07:08:01;;;;;;;;;4.33;4.33;;;;;30.25;36.91;101455.19;146632;569;45914;-69
2022/07/19 07:10:53;;;;;;;;;4.25;4.00;;;;;30.30;36.62;101464.88;146638;570;45018;-68
2022/07/19 07:13:46;;;;;;;;;2.67;2.67;;;;;30.29;36.39;101452.44;146639;585;45010;-68
2022/07/19 07:16:39;;;;;;;;;3.00;2.00;;;;;30.26;36.41;101456.97;146638;566;45018;-69
2022/07/19 07:19:31;;;;;;;;;2.33;2.33;;;;;30.15;36.27;101454.44;146635;635;45010;-69
2022/07/19 07:22:23;;;;;;;;;3.00;3.00;;;;;29.98;36.80;101449.41;146624;656;46018;-69
2022/07/19 07:25:18;;;;;;;;;4.75;3.75;;;;;29.78;36.64;101454.19;146619;565;46010;-70
2022/07/19 07:28:10;;;;;;;;;3.00;3.00;;;;;29.56;36.70;101457.19;146624;695;45919;-68
2022/07/19 07:31:02;;;;;;;;;3.33;3.33;;;;;29.38;36.53;101455.72;146623;570;46010;-68
2022/07/19 07:33:54;;;;;;;;;3.50;3.50;;;;;29.26;37.33;101460.34;146625;670;46010;-67
2022/07/19 07:36:46;;;;;;;;;3.00;3.00;;;;;29.22;38.32;101460.41;146622;627;46010;-68
2022/07/19 07:39:38;;;;;;;;;5.00;3.00;;;;;29.31;38.73;101455.81;146618;639;46019;-66
2022/07/19 07:42:35;;;;;;;;;3.00;3.00;;;;;29.26;38.06;101452.34;146620;688;46012;-68
2022/07/19 07:45:28;;;;;;;;;2.67;2.67;;;;;29.20;37.78;101456.84;146624;595;46010;-66
2022/07/19 07:48:20;;;;;;;;;4.00;4.00;;;;;29.15;38.03;101453.34;146623;570;45030;-67
2022/07/19 07:51:14;;;;;;;;;4.33;3.33;;;;;29.11;38.25;101464.13;146626;589;46008;-67
2022/07/19 07:54:15;;;;;;;;;5.00;3.67;;;;;28.22;37.82;101283.75;146621;606;46018;-66
2022/07/19 07:57:08;;;;;;;;;3.00;2.00;;;;;29.40;38.02;101447.66;146623;564;46018;-66
2022/07/19 08:00:00;;;;;;;;;1.50;1.50;;;;;29.54;37.14;101444.78;146618;660;46018;-67
2022/07/19 08:02:52;;;;;;;;;4.00;4.00;;;;;29.49;37.65;101454.66;146625;601;45018;-68
2022/07/19 08:05:48;;;;;;;;;3.00;2.00;;;;;28.41;38.46;101300.44;146621;637;45018;-68
2022/07/19 08:08:40;;;;;;;;;3.00;2.50;;;;;29.33;38.38;101454.88;146617;585;46008;-68
2022/07/19 08:11:31;;;;;;;;;2.33;1.00;;;;;29.30;38.13;101462.94;146618;622;46010;-69
2022/07/19 08:14:24;;;;;;;;;4.00;2.67;;;;;29.35;39.29;101463.78;146625;565;46008;-70
2022/07/19 08:17:15;;;;;;;;;2.67;1.67;;;;;29.49;39.08;101458.19;146618;566;46019;-68
2022/07/19 08:20:08;;;;;;;;;3.00;2.33;;;;;29.53;38.36;101462.59;146624;588;46010;-68
2022/07/19 08:23:00;;;;;;;;;3.00;3.00;;;;;29.64;37.68;101451.78;146621;622;46012;-67
2022/07/19 08:25:53;;;;;;;;;3.00;3.00;;;;;29.81;37.65;101452.34;146623;598;46018;-68
2022/07/19 08:28:46;;;;;;;;;3.00;3.00;;;;;29.96;37.70;101439.66;146622;598;46010;-67
2022/07/19 08:31:38;;;;;;;;;3.00;2.00;;;;;30.08;37.49;101451.00;146624;578;46019;-68
2022/07/19 08:34:30;;;;;;;;;3.00;2.00;;;;;30.00;37.09;101447.59;146620;597;46018;-68
2022/07/19 08:37:22;;;;;;;;;4.67;3.33;;;;;30.00;37.31;101449.38;146618;594;45920;-68
2022/07/19 08:40:14;;;;;;;;;3.00;2.00;;;;;30.06;37.92;101465.31;146619;596;45018;-68
2022/07/19 08:43:07;;;;;;;;;1.67;1.67;;;;;30.16;37.94;101458.91;146624;576;46010;-67
2022/07/19 08:46:05;;;;;;;;;4.00;3.00;;;;;30.24;37.06;101453.44;146624;573;46019;-67
2022/07/19 08:48:59;;;;;;;;;3.00;2.00;;;;;30.28;37.74;101448.00;146621;613;46008;-68
2022/07/19 08:51:57;;;;;;;;;6.67;3.33;;;;;30.36;37.22;101446.03;146621;642;46019;-68
2022/07/19 08:59:08;;;;;;;;;1.00;1.00;;;;;30.48;36.80;101441.38;146623;590;46922;-66
2022/07/19 09:02:00;;;;;;;;;3.50;3.00;;;;;30.48;34.81;101455.62;146626;634;45917;-68
2022/07/19 09:05:50;;;;;;;;;2.00;2.00;;;;;30.52;32.80;101451.97;146620;621;46012;-68
2022/07/19 09:09:07;;;;;;;;;2.00;2.00;;;;;30.68;34.56;101435.59;146616;618;45018;-69
2022/07/19 09:12:09;;;;;;;;;2.67;2.67;;;;;30.84;35.81;101434.38;146620;596;46018;-69
2022/07/19 09:15:01;;;;;;;;;2.00;2.00;;;;;31.05;31.52;101433.03;146625;565;45019;-66
2022/07/19 09:17:53;;;;;;;;;2.67;2.00;;;;;31.22;32.20;101430.88;146623;615;46010;-68
2022/07/19 09:20:47;;;;;;;;;2.00;2.00;;;;;31.38;32.04;101419.81;146627;565;46008;-67
2022/07/19 09:23:41;;;;;;;;;1.67;1.67;;;;;31.58;30.31;101422.88;146619;564;45018;-66
2022/07/19 09:26:39;;;;;;;;;2.00;2.00;;;;;31.70;30.34;101419.00;146622;565;45917;-68
2022/07/19 09:29:32;;;;;;;;;3.00;3.00;;;;;31.80;30.84;101416.97;146621;566;46012;-68
2022/07/19 09:32:26;;;;;;;;;1.67;1.67;;;;;31.92;31.39;101416.69;146625;566;46008;-67
2022/07/19 09:35:24;;;;;;;;;2.00;2.00;;;;;32.08;29.61;101411.78;146618;580;46018;-68
2022/07/19 09:38:55;;;;;;;;;;;;;;;;;;;;;
2022/07/19 09:42:02;;;;;;;;;2.00;2.00;;;;;32.39;32.48;101414.50;146620;708;46010;-69
2022/07/19 09:45:03;;;;;;;;;1.33;1.33;;;;;32.49;31.39;101407.09;146622;630;46018;-67
2022/07/19 09:48:04;;;;;;;;;3.33;3.00;;;;;32.50;32.13;101409.75;146622;585;46010;-70
2022/07/19 09:50:56;;;;;;;;;4.00;2.33;;;;;32.58;30.62;101401.44;146622;632;45018;-70
2022/07/19 09:53:48;;;;;;;;;4.67;2.33;;;;;32.53;30.62;101404.28;146621;590;46011;-71
2022/07/19 09:56:43;;;;;;;;;1.67;1.67;;;;;32.40;30.43;101398.34;146624;565;46008;-71
2022/07/19 09:59:36;;;;;;;;;3.00;2.00;;;;;31.48;29.46;101247.13;146623;570;45019;-70
2022/07/19 10:02:30;;;;;;;;;2.33;2.33;;;;;32.54;30.20;101402.47;146622;609;46018;-70
2022/07/19 10:05:23;;;;;;;;;3.00;3.00;;;;;32.58;29.35;101396.06;146618;579;47919;-71
2022/07/19 10:08:15;;;;;;;;;1.75;1.75;;;;;32.56;29.97;101388.06;146616;682;46008;-70
2022/07/19 10:11:09;;;;;;;;;1.33;1.00;;;;;32.60;30.41;101392.41;146623;659;45919;-70
2022/07/19 10:17:09;;;;;;;;;3.00;3.00;;;;;32.89;30.67;101396.91;146611;560;46029;-71
2022/07/19 10:20:03;;;;;;;;;3.00;3.00;;;;;33.02;28.26;101386.69;146616;626;45020;-71
2022/07/19 10:22:55;;;;;;;;;3.50;3.50;;;;;33.03;28.22;101392.94;146610;572;46011;-71
2022/07/19 10:25:51;;;;;;;;;1.00;0.00;;;;;32.85;29.47;101386.31;146616;584;46018;-71
2022/07/19 10:28:43;;;;;;;;;2.00;2.00;;;;;32.69;28.59;101379.66;146613;573;46019;-70
2022/07/19 10:31:38;;;;;;;;;3.00;3.00;;;;;32.49;29.20;101389.16;146616;614;46008;-71
2022/07/19 10:34:30;;;;;;;;;2.33;2.33;;;;;32.31;29.32;101392.38;146616;576;45028;-71
2022/07/19 10:37:45;;;;;;;;;1.67;1.67;;;;;31.26;32.54;101226.25;146609;641;46010;-71
2022/07/19 10:41:07;;;;;;;;;3.00;2.00;;;;;30.98;31.25;101201.97;146614;628;45018;-72
2022/07/19 10:44:14;;;;;;;;;2.67;2.67;;;;;31.98;32.49;101392.38;146612;564;46018;-72
2022/07/19 10:47:06;;;;;;;;;3.00;2.00;;;;;32.13;28.69;101391.09;146615;602;45034;-72
2022/07/19 10:50:21;;;;;;;;;2.00;2.00;;;;;32.25;30.39;101389.87;146616;671;46018;-71
2022/07/19 10:53:13;;;;;;;;;1.33;1.33;;;;;32.33;30.70;101382.47;146611;600;46018;-71
2022/07/19 10:56:25;;;;;;;;;1.00;1.00;;;;;32.46;31.50;101378.50;146618;581;46010;-71
2022/07/19 10:59:17;;;;;;;;;3.00;2.00;;;;;32.44;28.59;101375.03;146612;651;46018;-71
2022/07/19 11:02:13;;;;;;;;;3.00;2.00;;;;;32.43;29.35;101375.87;146616;577;46008;-70
2022/07/19 11:05:05;;;;;;;;;2.67;2.67;;;;;32.48;30.66;101376.69;146612;553;46018;-71
2022/07/19 11:08:00;;;;;;;;;3.00;3.00;;;;;32.53;31.13;101380.13;146611;584;46010;-71
2022/07/19 11:10:52;;;;;;;;;3.00;3.00;;;;;32.65;28.55;101370.81;146610;636;46018;-71
2022/07/19 11:13:49;;;;;;;;;1.00;0.67;;;;;32.72;30.08;101369.69;146617;581;46010;-71
2022/07/19 11:16:41;;;;;;;;;2.67;2.67;;;;;32.84;30.10;101357.69;146617;569;45018;-71
2022/07/19 11:19:33;;;;;;;;;1.75;1.75;;;;;32.99;30.40;101365.31;146616;585;45018;-72
2022/07/19 11:22:25;;;;;;;;;4.00;4.00;;;;;33.02;29.76;101358.94;146613;607;46018;-72
2022/07/19 11:25:19;;;;;;;;;2.00;2.00;;;;;33.11;28.16;101356.81;146613;659;46018;-72
2022/07/19 11:28:29;;;;;;;;;1.67;1.67;;;;;33.18;30.51;101368.28;146612;582;46019;-72
2022/07/19 11:31:26;;;;;;;;;2.25;2.25;;;;;33.27;28.20;101354.53;146615;565;45018;-72
2022/07/19 11:34:18;;;;;;;;;3.00;3.00;;;;;33.37;28.49;101354.22;146614;610;46010;-71
2022/07/19 11:37:10;;;;;;;;;3.00;3.00;;;;;33.39;28.49;101344.28;146609;678;46019;-72
2022/07/19 11:40:02;;;;;;;;;4.00;3.50;;;;;33.45;29.05;101347.62;146615;582;46010;-71
2022/07/19 11:42:55;;;;;;;;;2.67;2.00;;;;;33.53;28.08;101345.59;146616;634;45020;-72
2022/07/19 11:45:50;;;;;;;;;2.00;2.00;;;;;33.56;27.79;101337.44;146614;570;46012;-72
2022/07/19 11:48:42;;;;;;;;;3.50;2.00;;;;;33.60;27.77;101331.94;146616;597;45018;-71
2022/07/19 11:51:34;;;;;;;;;2.00;2.00;;;;;33.57;29.24;101333.81;146615;595;46019;-72
2022/07/19 11:54:26;;;;;;;;;1.50;1.50;;;;;33.55;28.21;101327.63;146613;571;46018;-71
2022/07/19 11:57:29;;;;;;;;;2.00;2.00;;;;;33.54;29.48;101324.97;146611;625;45019;-71
2022/07/19 12:00:22;;;;;;;;;2.33;2.33;;;;;33.49;29.21;101333.19;146613;604;46018;-71
2022/07/19 12:03:37;;;;;;;;;2.00;2.00;;;;;33.50;29.29;101329.59;146617;563;45917;-71
2022/07/19 12:06:54;;;;;;;;;2.00;2.00;;;;;33.54;30.75;101328.53;146612;582;45030;-70
2022/07/19 12:09:46;;;;;;;;;1.67;1.67;;;;;33.61;27.94;101320.25;146616;678;46010;-71
2022/07/19 12:12:44;;;;;;;;;2.00;2.00;;;;;33.59;29.75;101320.31;146617;617;46008;-71
2022/07/19 12:16:02;;;;;;;;;2.67;2.67;;;;;32.63;30.53;101158.75;146615;590;46917;-71
2022/07/19 12:19:01;;;;;;;;;4.00;2.33;;;;;33.52;28.83;101316.06;146616;625;45025;-70
2022/07/19 12:21:54;;;;;;;;;2.33;2.33;;;;;33.43;27.37;101311.87;146630;599;45010;-71
2022/07/19 12:24:50;;;;;;;;;3.00;3.00;;;;;33.31;29.24;101310.50;146630;593;46008;-70
2022/07/19 12:27:42;;;;;;;;;2.00;2.00;;;;;33.24;28.58;101308.94;146624;694;46012;-71
2022/07/19 12:30:34;;;;;;;;;3.00;3.00;;;;;33.23;30.00;101306.31;146628;656;45018;-70
2022/07/19 12:33:29;;;;;;;;;1.00;1.00;;;;;33.16;29.28;101302.06;146630;583;45011;-69
2022/07/19 12:36:41;;;;;;;;;1.00;1.00;;;;;32.93;30.45;101297.41;146627;625;45010;-69
2022/07/19 12:39:33;;;;;;;;;4.25;3.50;;;;;32.70;29.00;101295.47;146624;702;46915;-69
2022/07/19 12:42:26;;;;;;;;;2.00;2.00;;;;;32.47;30.15;101285.47;146628;628;45019;-68
2022/07/19 12:45:24;;;;;;;;;3.00;2.00;;;;;32.29;29.80;101279.69;146628;616;45018;-70
2022/07/19 12:48:18;;;;;;;;;3.00;3.00;;;;;32.14;28.63;101288.19;146631;596;45010;-70
2022/07/19 12:51:10;;;;;;;;;2.67;2.00;;;;;32.05;29.65;101281.28;146630;642;45916;-71
2022/07/19 12:54:02;;;;;;;;;2.00;2.00;;;;;32.05;30.29;101280.41;146633;580;45010;-71
2022/07/19 12:56:54;;;;;;;;;2.75;2.00;;;;;32.02;30.47;101285.88;146626;572;45915;-71
2022/07/19 12:59:46;;;;;;;;;3.67;3.67;;;;;31.95;29.89;101274.44;146633;622;45010;-70
2022/07/19 13:02:39;;;;;;;;;1.67;1.67;;;;;31.85;27.89;101275.62;146631;708;45010;-70
2022/07/19 13:05:33;;;;;;;;;2.67;2.67;;;;;31.77;30.47;101266.88;146629;566;45018;-69
2022/07/19 13:08:25;;;;;;;;;3.00;1.33;;;;;31.77;30.49;101261.53;146630;578;45012;-69
2022/07/19 13:11:17;;;;;;;;;2.00;2.00;;;;;31.69;27.85;101264.44;146630;688;45018;-70
2022/07/19 13:14:11;;;;;;;;;2.00;2.00;;;;;31.68;29.64;101262.66;146629;630;45010;-69
2022/07/19 13:17:03;;;;;;;;;1.33;1.33;;;;;31.67;29.62;101258.22;146631;629;45018;-70
2022/07/19 13:20:08;;;;;;;;;5.00;3.00;;;;;31.45;29.64;101256.12;146626;584;45915;-70
2022/07/19 13:23:00;;;;;;;;;2.33;2.33;;;;;31.36;30.60;101261.75;146616;572;45018;-69
2022/07/19 13:25:52;;;;;;;;;5.50;3.25;;;;;31.25;32.83;101269.16;146607;569;46916;-69
2022/07/19 13:28:44;;;;;;;;;2.00;2.00;;;;;31.20;33.96;101271.06;146617;569;46008;-72
2022/07/19 13:31:37;;;;;;;;;3.00;3.00;;;;;31.19;32.42;101263.97;146612;575;46010;-69
2022/07/19 13:34:29;;;;;;;;;2.33;2.00;;;;;31.15;32.37;101252.41;146610;594;46008;-70
2022/07/19 13:37:21;;;;;;;;;2.00;2.00;;;;;31.21;30.30;101257.63;146614;629;46915;-71